Bonaventure, Canada
Current Conditions -  °F | °C
As of 9:00 AM on Wednesday 28 Jan 2015 (Local Time) from CZBF Reporting Station
Blowing Snow Blowing Snow  
Wind Chill: -2°   Ceiling: 500
Heat Index: 12°   Visibility: 2.5mi
Dew Point:   Wind: 12mph
Humidity: 79%   Direction: 340°NNW
Pressure: 29.83"   Gusts: 20mph
Location:  48.05°N, 65.47°W
Report Text: CZBF 281400Z 34010G17KT 270V020 2 1/2SM -SHSN DRSN OVC005 M11/M14 A2983 RMK ST8 VERT CLD EMBD SLP106
Loading
Personal Weather Stations






























Interactive Weather Map New forecast layout! Learn more

10-Day Weather Forecast

Advertisements
Track Severe Weather on mobile